Time;durP1;ratioP1;P1;durP2;ratioP2;P2;SDS_P1;SDS_P2;PMS_P1;PMS_P2;Temp;Humidity;BMP_temperature;BMP_pressure;BME280_temperature;BME280_humidity;BME280_pressure;Samples;Min_cycle;Max_cycle;Signal;HPM_P1;HPM_P2
2024/02/09 00:00:51;;;;;;;9.80;3.07;;;9.50;99.90;;;;;;5022756;28;20030;-87
2024/02/09 00:03:18;;;;;;;6.93;2.97;;;9.50;99.90;;;;;;5029065;28;20116;-86
2024/02/09 00:05:44;;;;;;;11.35;3.65;;;9.50;99.90;;;;;;5026532;28;20105;-86
2024/02/09 00:08:13;;;;;;;11.15;4.00;;;9.50;99.90;;;;;;5026614;28;20117;-87
2024/02/09 00:10:40;;;;;;;5.40;3.03;;;9.50;99.90;;;;;;5030902;28;20395;-86
2024/02/09 00:13:12;;;;;;;5.57;2.83;;;9.50;99.90;;;;;;5028034;28;20040;-86
2024/02/09 00:15:38;;;;;;;11.10;3.45;;;9.50;99.90;;;;;;5041854;28;20021;-87
2024/02/09 00:18:04;;;;;;;5.65;2.92;;;9.50;99.90;;;;;;5022340;28;20018;-86
2024/02/09 00:20:30;;;;;;;6.35;2.88;;;9.50;99.90;;;;;;5024568;28;20030;-86
2024/02/09 00:22:55;;;;;;;9.43;3.00;;;9.50;99.90;;;;;;5024915;28;20541;-88
2024/02/09 00:25:21;;;;;;;4.57;2.63;;;9.50;99.90;;;;;;5021816;28;20026;-87
2024/02/09 00:27:46;;;;;;;6.05;2.85;;;9.50;99.90;;;;;;5030789;28;20021;-87
2024/02/09 00:30:13;;;;;;;9.00;3.28;;;9.50;99.90;;;;;;5026703;28;20026;-87
2024/02/09 00:32:39;;;;;;;4.68;3.17;;;9.50;99.90;;;;;;5032518;28;20036;-86
2024/02/09 00:35:08;;;;;;;12.13;3.50;;;9.50;99.90;;;;;;5020897;28;20488;-86
2024/02/09 00:37:38;;;;;;;9.68;3.25;;;9.50;99.90;;;;;;5032056;28;20021;-87
2024/02/09 00:40:05;;;;;;;8.73;2.97;;;9.40;99.90;;;;;;5029504;28;20452;-86
2024/02/09 00:42:34;;;;;;;5.80;2.97;;;9.50;99.90;;;;;;5024236;28;20261;-88
2024/02/09 00:45:01;;;;;;;11.48;3.05;;;9.50;99.90;;;;;;5022892;28;20124;-87
2024/02/09 00:47:27;;;;;;;8.57;3.08;;;9.50;99.90;;;;;;5030752;28;20032;-86
2024/02/09 00:49:54;;;;;;;9.98;3.15;;;9.50;99.90;;;;;;5022510;28;20081;-86
2024/02/09 00:52:20;;;;;;;12.27;3.15;;;9.50;99.90;;;;;;5034497;28;20428;-86
2024/02/09 00:54:46;;;;;;;11.63;3.10;;;9.50;99.90;;;;;;5022340;28;20435;-86
2024/02/09 00:57:14;;;;;;;14.35;3.90;;;9.50;99.90;;;;;;5024926;28;20061;-87
2024/02/09 00:59:40;;;;;;;7.53;2.72;;;9.50;99.90;;;;;;5029038;28;20511;-87
2024/02/09 01:02:08;;;;;;;6.75;2.97;;;9.50;99.90;;;;;;5030147;28;20033;-86
2024/02/09 01:04:38;;;;;;;13.73;3.55;;;9.50;99.90;;;;;;5027606;28;20037;-87
2024/02/09 01:07:04;;;;;;;5.73;2.47;;;9.50;99.90;;;;;;5015271;28;20030;-86
2024/02/09 01:09:32;;;;;;;9.85;2.83;;;9.50;99.90;;;;;;5020467;28;20343;-86
2024/02/09 01:11:58;;;;;;;7.25;2.63;;;9.50;99.90;;;;;;5040646;28;20387;-86
2024/02/09 02:44:46;;;;;;;6.88;1.30;;;9.50;99.90;;;;;;5031239;28;20022;-88
2024/02/09 02:47:12;;;;;;;2.53;1.30;;;9.50;99.90;;;;;;5033334;28;20063;-86
2024/02/09 03:06:01;;;;;;;2.38;1.00;;;9.50;99.90;;;;;;5024342;28;20497;-86
2024/02/09 03:08:27;;;;;;;2.20;0.90;;;9.50;99.90;;;;;;5031813;28;20018;-86
2024/02/09 03:10:53;;;;;;;2.20;1.00;;;9.50;99.90;;;;;;5034183;28;20018;-87
2024/02/09 03:13:18;;;;;;;4.60;1.33;;;9.50;99.90;;;;;;5030737;28;20018;-86
2024/02/09 03:15:45;;;;;;;1.00;0.75;;;9.50;99.90;;;;;;5031699;28;20018;-87
2024/02/09 03:18:11;;;;;;;0.82;0.82;;;9.50;99.90;;;;;;5031547;28;20032;-87
2024/02/09 03:20:40;;;;;;;1.75;1.25;;;9.50;99.90;;;;;;5024576;28;20113;-86
2024/02/09 03:23:06;;;;;;;3.25;1.00;;;9.50;99.90;;;;;;5020092;28;20030;-88
2024/02/09 03:25:32;;;;;;;1.48;0.85;;;9.50;99.90;;;;;;5026664;28;20415;-89
2024/02/09 03:27:57;;;;;;;1.70;1.13;;;9.50;99.90;;;;;;5026602;28;20025;-87
2024/02/09 03:30:26;;;;;;;1.75;0.80;;;9.50;99.90;;;;;;5018067;28;20022;-88
2024/02/09 03:32:53;;;;;;;4.40;1.00;;;9.50;99.90;;;;;;5028976;28;20025;-87
2024/02/09 03:35:18;;;;;;;5.05;1.38;;;9.50;99.90;;;;;;5029037;28;20055;-87
2024/02/09 03:37:47;;;;;;;3.33;1.50;;;9.50;99.90;;;;;;5031218;28;20507;-88
2024/02/09 03:40:13;;;;;;;6.07;1.65;;;9.50;99.90;;;;;;5028823;28;20037;-86
2024/02/09 03:42:38;;;;;;;4.32;1.17;;;9.50;99.90;;;;;;5028338;28;20022;-86
2024/02/09 03:45:06;;;;;;;4.63;1.40;;;9.50;99.90;;;;;;5028174;28;20028;-85
2024/02/09 03:47:32;;;;;;;4.00;1.80;;;9.50;99.90;;;;;;5031280;28;20025;-86
2024/02/09 03:49:58;;;;;;;4.28;1.80;;;9.50;99.90;;;;;;5029479;28;20013;-86
2024/02/09 03:52:24;;;;;;;5.82;1.77;;;9.50;99.90;;;;;;5029228;28;20032;-87
2024/02/09 03:54:52;;;;;;;5.43;1.75;;;9.50;99.90;;;;;;5034179;28;20390;-86
2024/02/09 03:57:19;;;;;;;2.47;1.80;;;9.50;99.90;;;;;;5032515;28;20018;-86
2024/02/09 03:59:44;;;;;;;3.70;1.73;;;9.50;99.90;;;;;;5024250;28;20104;-86
2024/02/09 04:02:10;;;;;;;11.52;2.85;;;9.50;99.90;;;;;;5028928;28;20141;-87
2024/02/09 04:04:36;;;;;;;7.57;2.38;;;9.50;99.90;;;;;;5026253;28;20087;-87
2024/02/09 04:07:05;;;;;;;9.55;2.15;;;9.50;99.90;;;;;;5027119;28;20024;-85
2024/02/09 04:09:35;;;;;;;5.32;2.20;;;9.50;99.90;;;;;;5031939;28;20026;-87
2024/02/09 04:12:02;;;;;;;7.13;1.98;;;9.50;99.90;;;;;;5022224;28;20104;-88
2024/02/09 04:14:27;;;;;;;3.60;2.05;;;9.50;99.90;;;;;;5026803;28;20108;-87
2024/02/09 04:16:54;;;;;;;7.38;2.47;;;9.50;99.90;;;;;;5028514;28;20053;-86
2024/02/09 04:19:20;;;;;;;5.03;1.85;;;9.50;99.90;;;;;;5024756;28;20113;-88
2024/02/09 04:21:49;;;;;;;3.80;2.05;;;9.50;99.90;;;;;;5033884;28;20017;-89
2024/02/09 04:24:23;;;;;;;5.10;1.90;;;9.50;99.90;;;;;;5023488;28;20024;-90
2024/02/09 04:26:49;;;;;;;8.75;1.88;;;9.50;99.90;;;;;;5031388;28;20098;-86
2024/02/09 04:29:15;;;;;;;2.80;2.03;;;9.50;99.90;;;;;;5031998;28;20017;-90
2024/02/09 04:31:51;;;;;;;7.32;2.05;;;9.50;99.90;;;;;;5025419;28;20017;-89
2024/02/09 04:34:17;;;;;;;3.75;2.00;;;9.50;99.90;;;;;;5028186;28;20073;-90
2024/02/09 04:36:45;;;;;;;2.95;1.77;;;9.50;99.90;;;;;;5024670;28;20030;-89
2024/02/09 04:39:11;;;;;;;6.47;1.83;;;9.50;99.90;;;;;;5027426;28;20484;-89
2024/02/09 04:41:38;;;;;;;3.42;1.77;;;9.50;99.90;;;;;;5026429;28;20056;-88
2024/02/09 04:44:04;;;;;;;4.13;1.75;;;9.50;99.90;;;;;;5030531;28;20048;-88
2024/02/09 04:46:32;;;;;;;5.22;2.60;;;9.50;99.90;;;;;;5024911;28;20101;-87
2024/02/09 04:48:59;;;;;;;8.30;2.35;;;9.50;99.90;;;;;;5034625;28;20032;-87
2024/02/09 04:51:24;;;;;;;4.13;2.63;;;9.50;99.90;;;;;;5025145;28;20056;-87
2024/02/09 04:53:50;;;;;;;6.07;2.00;;;9.50;99.90;;;;;;5022955;28;20467;-89
2024/02/09 04:56:24;;;;;;;4.38;2.00;;;9.50;99.90;;;;;;5031678;28;20642;-90
2024/02/09 04:58:51;;;;;;;2.42;1.90;;;9.50;99.90;;;;;;5028921;28;20013;-89
2024/02/09 05:01:27;;;;;;;6.95;2.05;;;9.50;99.90;;;;;;5030671;28;20032;-88
2024/02/09 05:03:55;;;;;;;4.97;2.03;;;9.50;99.90;;;;;;5030378;28;20024;-88
2024/02/09 05:06:21;;;;;;;3.05;2.20;;;9.50;99.90;;;;;;5027759;28;20021;-86
2024/02/09 05:08:47;;;;;;;8.13;2.78;;;9.50;99.90;;;;;;5030076;28;20030;-90
2024/02/09 05:11:14;;;;;;;4.95;2.17;;;9.50;99.90;;;;;;5036810;28;20467;-88
2024/02/09 05:13:40;;;;;;;5.07;1.80;;;9.50;99.90;;;;;;5038533;28;20100;-86
2024/02/09 05:16:08;;;;;;;3.22;2.00;;;9.50;99.90;;;;;;5030658;28;20025;-88
2024/02/09 05:18:34;;;;;;;3.25;1.70;;;9.50;99.90;;;;;;5031960;28;20443;-89
2024/02/09 05:21:00;;;;;;;9.75;1.92;;;9.50;99.90;;;;;;5027518;28;20101;-88
2024/02/09 05:23:26;;;;;;;2.22;1.48;;;9.50;99.90;;;;;;5030353;28;20029;-90
2024/02/09 05:25:51;;;;;;;2.03;1.10;;;9.50;99.90;;;;;;5028131;28;20028;-89
2024/02/09 05:28:17;;;;;;;1.17;1.08;;;9.50;99.90;;;;;;5054432;28;20017;-90
2024/02/09 05:30:42;;;;;;;5.47;1.10;;;9.50;99.90;;;;;;5032847;28;20033;-88
2024/02/09 05:33:10;;;;;;;2.15;1.40;;;9.50;99.90;;;;;;5042554;28;20056;-89
2024/02/09 05:35:37;;;;;;;3.13;1.30;;;9.50;99.90;;;;;;5042873;28;20024;-89
2024/02/09 05:38:04;;;;;;;1.55;1.10;;;9.50;99.90;;;;;;5035022;28;20474;-90
2024/02/09 05:40:30;;;;;;;1.20;1.10;;;9.50;99.90;;;;;;5031097;28;20104;-90
2024/02/09 05:42:55;;;;;;;1.02;0.82;;;9.50;99.90;;;;;;5027304;28;20022;-89
2024/02/09 05:45:21;;;;;;;2.17;1.08;;;9.50;99.90;;;;;;5027572;28;20013;-87
2024/02/09 05:47:47;;;;;;;1.17;0.80;;;9.50;99.90;;;;;;5035070;28;20017;-88
2024/02/09 05:50:12;;;;;;;2.22;0.93;;;9.50;99.90;;;;;;5031682;28;20123;-89
2024/02/09 05:52:38;;;;;;;2.42;0.93;;;9.50;99.90;;;;;;5030104;28;20029;-89
2024/02/09 05:55:04;;;;;;;2.17;0.98;;;9.50;99.90;;;;;;5022871;28;20020;-89
2024/02/09 05:57:31;;;;;;;3.13;1.65;;;9.50;99.90;;;;;;5040470;28;20018;-89
2024/02/09 05:59:58;;;;;;;4.03;1.10;;;9.50;99.90;;;;;;5031172;28;20056;-90
2024/02/09 06:02:24;;;;;;;1.77;1.10;;;9.50;99.90;;;;;;5031830;28;20017;-89
2024/02/09 06:04:49;;;;;;;5.45;1.20;;;9.50;99.90;;;;;;5030693;28;20017;-89
2024/02/09 06:07:15;;;;;;;0.85;0.75;;;9.50;99.90;;;;;;5047370;28;20017;-91
2024/02/09 06:09:40;;;;;;;5.85;1.15;;;9.50;99.90;;;;;;5039712;28;20024;-87
2024/02/09 06:12:06;;;;;;;2.47;1.30;;;9.50;99.90;;;;;;5042788;28;20021;-88
2024/02/09 06:14:32;;;;;;;0.75;0.70;;;9.50;99.90;;;;;;5027849;28;20456;-88
2024/02/09 06:16:57;;;;;;;1.77;1.05;;;9.50;99.90;;;;;;5035768;28;20024;-87
2024/02/09 06:19:23;;;;;;;1.25;1.10;;;9.50;99.90;;;;;;5037890;28;20368;-87
2024/02/09 06:21:49;;;;;;;0.85;0.85;;;9.50;99.90;;;;;;5040268;28;20483;-89
2024/02/09 06:24:15;;;;;;;1.85;1.15;;;9.50;99.90;;;;;;5025758;28;20048;-87
2024/02/09 06:26:41;;;;;;;2.28;1.48;;;9.50;99.90;;;;;;5030223;28;20030;-87
2024/02/09 06:29:09;;;;;;;0.77;0.77;;;9.50;99.90;;;;;;5027889;28;20009;-87
2024/02/09 06:31:41;;;;;;;1.95;1.00;;;9.50;99.90;;;;;;5031609;28;20024;-89
2024/02/09 06:34:07;;;;;;;0.88;0.70;;;9.50;99.90;;;;;;5026172;28;20040;-87
2024/02/09 06:36:33;;;;;;;0.88;0.80;;;9.50;99.90;;;;;;5025155;28;20025;-90
2024/02/09 06:38:59;;;;;;;1.95;1.02;;;9.50;99.90;;;;;;5035507;28;20018;-89
2024/02/09 06:41:24;;;;;;;4.05;1.17;;;9.50;99.90;;;;;;5027219;28;20204;-89
2024/02/09 06:43:51;;;;;;;0.77;0.63;;;9.50;99.90;;;;;;5023785;28;20029;-87
2024/02/09 06:46:17;;;;;;;1.42;1.02;;;9.50;99.90;;;;;;5038535;28;20103;-88
2024/02/09 06:48:44;;;;;;;1.25;0.88;;;9.50;99.90;;;;;;5026008;28;20678;-88
2024/02/09 06:51:10;;;;;;;2.45;1.00;;;9.50;99.90;;;;;;5034782;28;20112;-89
2024/02/09 06:53:36;;;;;;;2.53;0.90;;;9.50;99.90;;;;;;5026933;28;20476;-89
2024/02/09 06:56:02;;;;;;;1.42;1.20;;;9.50;99.90;;;;;;5030921;28;20027;-89
2024/02/09 06:58:28;;;;;;;1.40;0.80;;;9.50;99.90;;;;;;5033504;28;20028;-89
2024/02/09 07:00:54;;;;;;;1.90;1.20;;;9.50;99.90;;;;;;5032271;28;20017;-86
2024/02/09 07:03:21;;;;;;;2.53;1.45;;;9.50;99.90;;;;;;5029550;28;20032;-86
2024/02/09 07:05:54;;;;;;;2.70;1.20;;;9.50;99.90;;;;;;5027953;28;20033;-86
2024/02/09 07:08:26;;;;;;;1.73;1.30;;;9.50;99.90;;;;;;5031227;28;20028;-86
2024/02/09 07:10:52;;;;;;;1.77;1.60;;;9.50;99.90;;;;;;5035251;28;20600;-87
2024/02/09 07:13:18;;;;;;;6.00;1.50;;;9.50;99.90;;;;;;5029616;28;20053;-87
2024/02/09 07:15:44;;;;;;;2.50;1.40;;;9.50;99.90;;;;;;5026783;28;20061;-86
2024/02/09 07:18:10;;;;;;;2.97;1.10;;;9.50;99.90;;;;;;5037754;28;20479;-88
2024/02/09 07:20:35;;;;;;;3.55;1.50;;;9.50;99.90;;;;;;5031596;28;20079;-87
2024/02/09 07:23:01;;;;;;;3.15;1.50;;;9.50;99.90;;;;;;5028533;28;20025;-87
2024/02/09 07:25:26;;;;;;;2.33;1.50;;;9.50;99.90;;;;;;5029611;28;20404;-86
2024/02/09 07:27:52;;;;;;;2.47;1.73;;;9.50;99.90;;;;;;5024681;28;20021;-87
2024/02/09 07:30:17;;;;;;;2.08;1.73;;;9.50;99.90;;;;;;5035399;28;20147;-86
2024/02/09 07:32:43;;;;;;;3.13;1.50;;;9.50;99.90;;;;;;5043053;28;20125;-86
2024/02/09 07:35:09;;;;;;;6.80;1.80;;;9.50;99.90;;;;;;5028179;28;20037;-86
2024/02/09 07:37:35;;;;;;;1.92;1.30;;;9.50;99.90;;;;;;5027788;28;20022;-87
2024/02/09 07:40:02;;;;;;;4.50;1.70;;;9.50;99.90;;;;;;5030618;28;20032;-86
2024/02/09 07:42:28;;;;;;;3.15;1.60;;;9.50;99.90;;;;;;5023511;28;20034;-86
2024/02/09 07:44:54;;;;;;;8.85;1.70;;;9.50;99.90;;;;;;5028477;28;20032;-87
2024/02/09 07:47:20;;;;;;;5.28;1.88;;;9.50;99.90;;;;;;5034248;28;20058;-86
2024/02/09 07:49:46;;;;;;;2.83;1.35;;;9.50;99.90;;;;;;5027286;28;20020;-86
2024/02/09 07:52:11;;;;;;;2.33;1.60;;;9.50;99.90;;;;;;5027373;28;20025;-87
2024/02/09 07:54:37;;;;;;;4.45;1.60;;;9.50;99.90;;;;;;5033411;28;20017;-87
2024/02/09 07:57:04;;;;;;;1.27;1.17;;;9.50;99.90;;;;;;5032417;28;20108;-86
2024/02/09 07:59:31;;;;;;;2.10;1.83;;;9.50;99.90;;;;;;5029420;28;20109;-87
2024/02/09 08:01:57;;;;;;;2.28;1.55;;;9.50;99.90;;;;;;5036579;28;20030;-86
2024/02/09 08:04:25;;;;;;;3.22;2.03;;;9.50;99.90;;;;;;5037520;28;20027;-87
2024/02/09 08:06:51;;;;;;;2.92;1.73;;;9.50;99.90;;;;;;5045132;28;20030;-89
2024/02/09 08:09:16;;;;;;;2.47;1.80;;;9.50;99.90;;;;;;5024240;28;20108;-87
2024/02/09 08:11:44;;;;;;;4.07;2.00;;;9.50;99.90;;;;;;5020754;28;20523;-88
2024/02/09 08:14:09;;;;;;;6.32;2.40;;;9.50;99.90;;;;;;5027643;28;20456;-87
2024/02/09 08:16:35;;;;;;;5.57;1.95;;;9.60;99.90;;;;;;5030356;28;20109;-87
2024/02/09 08:19:01;;;;;;;2.97;1.90;;;9.50;99.90;;;;;;5033805;28;20021;-88
2024/02/09 08:21:26;;;;;;;3.88;2.00;;;9.60;99.90;;;;;;5031413;28;20021;-86
2024/02/09 08:23:52;;;;;;;3.80;2.35;;;9.60;99.90;;;;;;5029032;28;20525;-87
2024/02/09 08:26:18;;;;;;;6.72;2.80;;;9.60;99.90;;;;;;5033897;28;20033;-87
2024/02/09 08:28:45;;;;;;;5.28;2.53;;;9.60;99.90;;;;;;5033024;28;20026;-86
2024/02/09 08:31:13;;;;;;;5.63;2.28;;;9.60;99.90;;;;;;5029062;28;20051;-87
2024/02/09 08:33:39;;;;;;;4.22;2.30;;;9.60;99.90;;;;;;5028277;28;20422;-86
2024/02/09 08:36:06;;;;;;;4.35;2.67;;;9.60;99.90;;;;;;5029228;28;20391;-85
2024/02/09 08:38:32;;;;;;;7.57;2.60;;;9.60;99.90;;;;;;5023925;28;20052;-87
2024/02/09 08:40:58;;;;;;;4.30;2.85;;;9.60;99.90;;;;;;5021299;28;20037;-87
2024/02/09 08:43:24;;;;;;;3.35;2.28;;;9.60;99.90;;;;;;5024056;28;20024;-86
2024/02/09 08:45:50;;;;;;;8.73;2.70;;;9.60;99.90;;;;;;5029215;28;20395;-87
2024/02/09 08:48:15;;;;;;;4.13;2.50;;;9.60;99.90;;;;;;5031128;28;20017;-87
2024/02/09 08:50:42;;;;;;;5.20;2.92;;;9.70;99.90;;;;;;5047086;28;20126;-87
2024/02/09 08:53:07;;;;;;;4.57;2.45;;;9.70;99.90;;;;;;5031067;28;20021;-86
2024/02/09 08:55:33;;;;;;;6.63;2.58;;;9.60;99.90;;;;;;5025721;28;20044;-86
2024/02/09 08:57:58;;;;;;;4.32;3.08;;;9.60;99.90;;;;;;5033415;28;20023;-86
2024/02/09 09:00:24;;;;;;;3.05;2.47;;;9.60;99.90;;;;;;5030480;28;20072;-86
2024/02/09 09:02:49;;;;;;;6.55;3.30;;;9.60;99.90;;;;;;5030693;28;20017;-87
2024/02/09 09:05:15;;;;;;;7.68;3.03;;;9.60;99.90;;;;;;5022374;28;20571;-87
2024/02/09 09:07:41;;;;;;;10.82;3.17;;;9.60;99.90;;;;;;5014992;28;20022;-87
2024/02/09 09:10:06;;;;;;;6.57;2.90;;;9.60;99.90;;;;;;5015752;28;20029;-88
2024/02/09 09:12:32;;;;;;;11.23;3.70;;;9.60;99.90;;;;;;5024115;28;20113;-87
2024/02/09 09:14:58;;;;;;;6.68;2.97;;;9.60;99.90;;;;;;5023349;28;20029;-87
2024/02/09 09:17:24;;;;;;;6.22;3.55;;;9.60;99.90;;;;;;5024028;28;20025;-87
2024/02/09 09:19:49;;;;;;;8.50;3.53;;;9.60;99.90;;;;;;5026853;28;20017;-87
2024/02/09 09:22:16;;;;;;;6.78;3.70;;;9.60;99.90;;;;;;5027324;28;20088;-86
2024/02/09 09:24:42;;;;;;;12.60;3.70;;;9.60;99.90;;;;;;5023991;28;20026;-88
2024/02/09 09:27:10;;;;;;;6.90;3.30;;;9.60;99.90;;;;;;5035414;28;20032;-86
2024/02/09 09:29:36;;;;;;;7.82;3.15;;;9.60;99.90;;;;;;5034379;28;20028;-87
2024/02/09 09:32:01;;;;;;;6.70;3.55;;;9.60;99.90;;;;;;5031167;28;20026;-87
2024/02/09 09:34:27;;;;;;;9.65;4.35;;;9.60;99.90;;;;;;5030168;28;20501;-86
2024/02/09 09:36:53;;;;;;;6.78;3.60;;;9.60;99.90;;;;;;5022259;28;20022;-87
2024/02/09 09:39:18;;;;;;;7.55;2.78;;;9.60;99.90;;;;;;5022516;28;20083;-86
2024/02/09 09:41:48;;;;;;;6.15;3.17;;;9.60;99.90;;;;;;5025671;28;20025;-86
2024/02/09 09:44:15;;;;;;;6.97;3.97;;;9.60;99.90;;;;;;5025323;28;20049;-87
2024/02/09 09:46:45;;;;;;;9.23;3.30;;;9.60;99.90;;;;;;5026875;28;20040;-88
2024/02/09 09:49:12;;;;;;;8.37;3.03;;;9.60;99.90;;;;;;5023136;28;20022;-87
2024/02/09 09:51:40;;;;;;;7.13;3.45;;;9.60;99.90;;;;;;5022624;28;20076;-87
2024/02/09 09:54:08;;;;;;;9.02;3.42;;;9.60;99.90;;;;;;5026275;28;20026;-87
2024/02/09 09:56:36;;;;;;;7.80;3.72;;;9.60;99.90;;;;;;5047058;28;20032;-86
2024/02/09 09:59:03;;;;;;;6.70;4.00;;;9.60;99.90;;;;;;5047549;28;20024;-87
2024/02/09 10:01:29;;;;;;;6.95;3.67;;;9.60;99.90;;;;;;5029450;28;20482;-86
2024/02/09 10:03:55;;;;;;;8.75;3.28;;;9.60;99.90;;;;;;5020057;28;20026;-85
2024/02/09 10:06:23;;;;;;;4.90;3.25;;;9.60;99.90;;;;;;5038818;28;20512;-87
2024/02/09 10:08:49;;;;;;;8.15;4.03;;;9.70;99.90;;;;;;5029721;28;20484;-87
2024/02/09 10:11:16;;;;;;;6.15;3.53;;;9.70;99.90;;;;;;5036897;28;20025;-86
2024/02/09 10:13:41;;;;;;;10.57;4.15;;;9.70;99.90;;;;;;5031916;28;20471;-87
2024/02/09 10:16:08;;;;;;;8.15;4.00;;;9.70;99.90;;;;;;5031351;28;20033;-86
2024/02/09 10:18:35;;;;;;;8.88;4.38;;;9.70;99.90;;;;;;5029097;28;20025;-85
2024/02/09 10:21:02;;;;;;;12.23;3.92;;;9.80;99.90;;;;;;5026527;28;20026;-87
2024/02/09 10:23:29;;;;;;;13.77;4.50;;;9.80;99.90;;;;;;5022970;28;20044;-87
2024/02/09 10:25:58;;;;;;;7.05;3.85;;;9.80;99.90;;;;;;5028324;28;20074;-87
2024/02/09 10:28:24;;;;;;;10.53;3.70;;;9.80;99.90;;;;;;5035571;28;20153;-87
2024/02/09 10:30:52;;;;;;;6.68;3.92;;;9.80;99.90;;;;;;5034603;28;20368;-87
2024/02/09 10:33:20;;;;;;;6.05;3.33;;;9.80;99.90;;;;;;5029442;28;20052;-87
2024/02/09 10:35:46;;;;;;;6.82;3.67;;;9.80;99.90;;;;;;5021840;28;20030;-87
2024/02/09 10:38:11;;;;;;;5.43;3.53;;;9.90;99.90;;;;;;5027949;28;20037;-88
2024/02/09 10:40:37;;;;;;;8.13;3.92;;;9.90;99.90;;;;;;5032983;28;20028;-87
2024/02/09 10:43:04;;;;;;;8.20;3.55;;;9.90;99.90;;;;;;5028746;28;20117;-86
2024/02/09 10:45:32;;;;;;;10.75;3.30;;;9.90;99.90;;;;;;5024329;28;20021;-86
2024/02/09 10:47:59;;;;;;;11.07;3.67;;;9.90;99.90;;;;;;5032209;28;20025;-87
2024/02/09 10:50:31;;;;;;;9.30;3.85;;;9.90;99.90;;;;;;5022273;28;20021;-86
2024/02/09 10:53:00;;;;;;;8.15;3.85;;;9.90;99.90;;;;;;5026170;28;20715;-87
2024/02/09 10:55:38;;;;;;;5.70;3.50;;;9.90;99.90;;;;;;5029168;28;20041;-88
2024/02/09 10:58:04;;;;;;;6.90;3.40;;;9.90;99.90;;;;;;5032421;28;20040;-85
2024/02/09 11:00:31;;;;;;;4.65;3.58;;;9.90;99.90;;;;;;5035116;28;20035;-86
2024/02/09 11:02:57;;;;;;;6.30;3.40;;;9.90;99.90;;;;;;5031918;28;20728;-90
2024/02/09 11:05:23;;;;;;;5.38;3.58;;;9.90;99.90;;;;;;5031811;28;20108;-87
2024/02/09 11:07:51;;;;;;;9.40;4.32;;;10.00;99.90;;;;;;5031204;28;20013;-89
2024/02/09 11:10:17;;;;;;;9.50;4.07;;;10.00;99.90;;;;;;5047777;28;20022;-88
2024/02/09 11:12:44;;;;;;;5.60;3.67;;;10.00;99.90;;;;;;5033773;28;20379;-89
2024/02/09 11:15:14;;;;;;;9.00;4.10;;;10.00;99.90;;;;;;5025395;28;20094;-90
2024/02/09 11:17:46;;;;;;;8.40;4.30;;;10.00;99.90;;;;;;5029463;28;20049;-88
2024/02/09 11:20:13;;;;;;;8.88;3.80;;;10.00;99.90;;;;;;5025609;28;20017;-88
2024/02/09 11:22:44;;;;;;;6.53;3.15;;;10.00;99.90;;;;;;5033314;28;20383;-88
2024/02/09 11:25:10;;;;;;;7.15;4.03;;;10.10;99.90;;;;;;5036343;28;20022;-88
2024/02/09 11:27:36;;;;;;;5.30;3.40;;;10.10;99.90;;;;;;5029390;28;20023;-87
2024/02/09 11:30:05;;;;;;;9.93;3.88;;;10.10;99.90;;;;;;5029094;28;20020;-89
2024/02/09 11:32:31;;;;;;;8.60;3.95;;;10.10;99.90;;;;;;5021051;28;20022;-89
2024/02/09 11:34:57;;;;;;;8.50;3.97;;;10.20;99.90;;;;;;5032219;28;20041;-89
2024/02/09 11:37:24;;;;;;;4.93;3.70;;;10.20;99.90;;;;;;5039719;28;20049;-87
2024/02/09 11:39:49;;;;;;;9.32;3.92;;;10.20;99.90;;;;;;5027138;28;20071;-90
2024/02/09 11:42:17;;;;;;;6.68;3.47;;;10.30;99.90;;;;;;5027062;28;20021;-88
2024/02/09 11:44:43;;;;;;;7.13;3.65;;;10.30;99.90;;;;;;5039286;28;20021;-87
2024/02/09 11:47:09;;;;;;;6.47;3.92;;;10.30;99.90;;;;;;5028183;28;20022;-89
2024/02/09 11:49:36;;;;;;;5.57;3.45;;;10.30;99.90;;;;;;5024054;28;20425;-89
2024/02/09 11:52:03;;;;;;;7.32;3.90;;;10.40;99.90;;;;;;5031678;28;20022;-88
2024/02/09 11:54:30;;;;;;;6.80;3.30;;;10.30;99.90;;;;;;5036348;28;20507;-86
2024/02/09 11:56:57;;;;;;;5.00;3.63;;;10.30;99.90;;;;;;5035096;28;20026;-84
2024/02/09 11:59:24;;;;;;;9.10;4.18;;;10.30;99.90;;;;;;5031274;28;20491;-88
2024/02/09 12:01:53;;;;;;;5.65;3.47;;;10.40;99.90;;;;;;5028294;28;20117;-88
2024/02/09 12:04:19;;;;;;;5.47;3.30;;;10.40;99.90;;;;;;5023062;28;20027;-86
2024/02/09 12:06:46;;;;;;;5.75;3.50;;;10.40;99.90;;;;;;5029049;28;20021;-87
2024/02/09 12:09:13;;;;;;;9.77;3.40;;;10.50;99.90;;;;;;5031639;28;20029;-87
2024/02/09 12:11:38;;;;;;;4.45;3.33;;;10.40;99.90;;;;;;5025222;28;20111;-87
2024/02/09 12:14:04;;;;;;;6.63;3.42;;;10.40;99.90;;;;;;5031491;28;20356;-86
2024/02/09 12:16:30;;;;;;;8.48;3.72;;;10.40;99.90;;;;;;5030031;28;20029;-87
2024/02/09 12:18:59;;;;;;;5.47;3.35;;;10.30;99.90;;;;;;5025906;28;20031;-86
2024/02/09 12:21:25;;;;;;;4.18;2.92;;;10.30;99.90;;;;;;5029269;28;20033;-87
2024/02/09 12:23:53;;;;;;;5.70;3.53;;;10.30;99.90;;;;;;5036350;28;20054;-87
2024/02/09 12:26:21;;;;;;;6.82;3.47;;;10.20;99.90;;;;;;5025649;28;20026;-86
2024/02/09 12:28:48;;;;;;;4.75;3.00;;;10.20;99.90;;;;;;5028640;28;20016;-87
2024/02/09 12:31:19;;;;;;;6.63;3.40;;;10.20;99.90;;;;;;5023026;28;20583;-86
2024/02/09 12:33:46;;;;;;;5.10;3.65;;;10.20;99.90;;;;;;5027012;28;20032;-87
2024/02/09 12:36:19;;;;;;;9.68;3.55;;;10.10;99.90;;;;;;5036776;28;20113;-86
2024/02/09 12:38:45;;;;;;;7.65;3.95;;;10.10;99.90;;;;;;5031008;28;20276;-86
2024/02/09 12:41:12;;;;;;;6.43;3.72;;;10.10;99.90;;;;;;5031686;28;20033;-87
2024/02/09 12:43:38;;;;;;;8.07;3.67;;;10.10;99.90;;;;;;5026390;28;20394;-87
2024/02/09 12:46:07;;;;;;;7.43;4.00;;;10.10;99.90;;;;;;5026083;28;20034;-87
2024/02/09 12:48:36;;;;;;;6.80;3.70;;;10.10;99.90;;;;;;5023009;28;20033;-87
2024/02/09 12:51:04;;;;;;;10.95;3.55;;;10.10;99.90;;;;;;5027533;28;20523;-86
2024/02/09 12:53:31;;;;;;;6.13;3.38;;;10.10;99.90;;;;;;5046164;28;20568;-87
2024/02/09 12:55:57;;;;;;;7.43;3.47;;;10.10;99.90;;;;;;5033891;28;20083;-86
2024/02/09 12:58:23;;;;;;;13.23;3.67;;;10.10;99.90;;;;;;5029507;28;20037;-87
2024/02/09 13:00:49;;;;;;;8.35;3.45;;;10.10;99.90;;;;;;5029587;28;20673;-86
2024/02/09 13:03:15;;;;;;;7.88;3.45;;;10.10;99.90;;;;;;5031936;28;20483;-87
2024/02/09 13:05:41;;;;;;;6.20;3.28;;;10.10;99.90;;;;;;5031855;28;20061;-88
2024/02/09 13:08:09;;;;;;;6.63;3.40;;;10.00;99.90;;;;;;5028765;28;20022;-86
2024/02/09 13:10:35;;;;;;;6.57;3.40;;;10.00;99.90;;;;;;5025459;28;20052;-86
2024/02/09 13:13:06;;;;;;;8.75;3.80;;;10.00;99.90;;;;;;5030188;28;20781;-87
2024/02/09 13:15:34;;;;;;;10.43;3.30;;;10.00;99.90;;;;;;5042780;28;20026;-87
2024/02/09 13:17:59;;;;;;;7.13;3.58;;;10.00;99.90;;;;;;5027853;28;20655;-86
2024/02/09 13:20:25;;;;;;;5.78;3.35;;;10.00;99.90;;;;;;5026176;28;20033;-86
2024/02/09 13:22:53;;;;;;;5.82;3.58;;;10.00;99.90;;;;;;5028676;28;20027;-87
2024/02/09 13:25:19;;;;;;;6.65;3.30;;;10.00;99.90;;;;;;5033691;28;20022;-86
2024/02/09 13:27:49;;;;;;;8.27;3.90;;;10.00;99.90;;;;;;5025663;28;20032;-87
2024/02/09 13:30:19;;;;;;;8.10;3.60;;;10.00;99.90;;;;;;5025886;28;20017;-87
2024/02/09 13:32:47;;;;;;;6.53;3.50;;;10.10;99.90;;;;;;5022444;28;20122;-88
2024/02/09 13:35:17;;;;;;;9.70;3.95;;;10.00;99.90;;;;;;5035560;28;20021;-87
2024/02/09 13:37:44;;;;;;;;;;;10.00;99.90;;;;;;5027644;28;20022;-87
2024/02/09 13:40:17;;;;;;;6.05;3.33;;;10.00;99.90;;;;;;5027304;28;20358;-87
2024/02/09 13:42:47;;;;;;;5.45;2.97;;;10.00;99.90;;;;;;5030178;28;20535;-88
2024/02/09 13:45:17;;;;;;;6.65;3.42;;;10.00;99.90;;;;;;5018277;28;20032;-86
2024/02/09 13:47:43;;;;;;;;;;;9.90;99.90;;;;;;5023967;28;20095;-86
2024/02/09 13:50:11;;;;;;;8.13;2.72;;;10.00;99.90;;;;;;5024143;28;19909;-86
2024/02/09 13:52:40;;;;;;;7.78;3.55;;;10.00;99.90;;;;;;5033593;28;20024;-86
2024/02/09 13:55:09;;;;;;;5.55;3.33;;;9.90;99.90;;;;;;5031533;28;20030;-87
2024/02/09 13:57:35;;;;;;;8.23;3.17;;;9.90;99.90;;;;;;5029288;28;20029;-86
2024/02/09 14:00:07;;;;;;;7.65;3.63;;;10.00;99.90;;;;;;5030577;28;20022;-86
2024/02/09 14:02:33;;;;;;;6.88;3.17;;;9.90;99.90;;;;;;5026739;28;20014;-87
2024/02/09 14:05:00;;;;;;;5.75;3.42;;;9.90;99.90;;;;;;5032933;28;20029;-87
2024/02/09 14:07:26;;;;;;;4.75;2.80;;;9.90;99.90;;;;;;5032093;28;20022;-86
2024/02/09 14:09:51;;;;;;;7.30;3.63;;;9.90;99.90;;;;;;5035936;28;20024;-86
2024/02/09 14:12:17;;;;;;;5.53;2.97;;;9.90;99.90;;;;;;5025330;28;20025;-87
2024/02/09 14:14:42;;;;;;;6.57;3.88;;;9.90;99.90;;;;;;5026824;28;20032;-87
2024/02/09 14:17:13;;;;;;;15.02;3.97;;;9.90;99.90;;;;;;5029773;28;20113;-86
2024/02/09 14:19:42;;;;;;;7.25;3.50;;;9.90;99.90;;;;;;5024272;28;20040;-87
2024/02/09 14:22:08;;;;;;;12.43;3.35;;;9.90;99.90;;;;;;5034051;28;20025;-87
2024/02/09 14:24:37;;;;;;;8.40;3.92;;;9.90;99.90;;;;;;5027500;28;20566;-86
2024/02/09 14:27:04;;;;;;;6.95;4.00;;;9.90;99.90;;;;;;5028626;28;20029;-87
2024/02/09 14:29:30;;;;;;;8.00;4.13;;;9.90;99.90;;;;;;5026626;28;20034;-87
2024/02/09 14:31:57;;;;;;;9.98;4.20;;;9.90;99.90;;;;;;5031253;28;20530;-86
2024/02/09 14:34:22;;;;;;;9.32;3.70;;;9.90;99.90;;;;;;5031545;28;20036;-86
2024/02/09 14:36:48;;;;;;;8.55;4.05;;;9.90;99.90;;;;;;5028016;28;20029;-87
2024/02/09 14:39:14;;;;;;;8.18;3.85;;;9.90;99.90;;;;;;5024128;28;20092;-87